sensor_id;sensor_type;location;lat;lon;timestamp;P1;durP1;ratioP1;P2;durP2;ratioP2
53207;SDS011;39093;52.788;6.940;2022-10-22T00:01:47;39.30;;;35.10;;
53207;SDS011;39093;52.788;6.940;2022-10-22T00:04:14;46.42;;;41.25;;
53207;SDS011;39093;52.788;6.940;2022-10-22T00:06:41;52.88;;;39.53;;
53207;SDS011;39093;52.788;6.940;2022-10-22T00:09:11;44.00;;;39.28;;
53207;SDS011;39093;52.788;6.940;2022-10-22T00:11:39;56.42;;;44.42;;
53207;SDS011;39093;52.788;6.940;2022-10-22T00:14:06;44.88;;;39.88;;
53207;SDS011;39093;52.788;6.940;2022-10-22T00:16:33;38.15;;;33.95;;
53207;SDS011;39093;52.788;6.940;2022-10-22T00:19:00;41.83;;;34.78;;
53207;SDS011;39093;52.788;6.940;2022-10-22T00:21:27;38.72;;;32.33;;
53207;SDS011;39093;52.788;6.940;2022-10-22T00:23:56;38.50;;;30.33;;
53207;SDS011;39093;52.788;6.940;2022-10-22T00:26:22;34.45;;;30.77;;
53207;SDS011;39093;52.788;6.940;2022-10-22T00:28:49;36.67;;;30.45;;
53207;SDS011;39093;52.788;6.940;2022-10-22T00:31:16;32.40;;;24.92;;
53207;SDS011;39093;52.788;6.940;2022-10-22T00:33:45;30.85;;;24.15;;
53207;SDS011;39093;52.788;6.940;2022-10-22T00:36:13;29.52;;;24.73;;
53207;SDS011;39093;52.788;6.940;2022-10-22T00:38:41;28.05;;;23.08;;
53207;SDS011;39093;52.788;6.940;2022-10-22T00:41:08;31.00;;;20.38;;
53207;SDS011;39093;52.788;6.940;2022-10-22T00:43:51;30.23;;;20.15;;
53207;SDS011;39093;52.788;6.940;2022-10-22T00:46:20;24.85;;;18.70;;
53207;SDS011;39093;52.788;6.940;2022-10-22T00:48:46;27.92;;;17.40;;
53207;SDS011;39093;52.788;6.940;2022-10-22T00:51:14;20.35;;;16.08;;
53207;SDS011;39093;52.788;6.940;2022-10-22T00:53:48;21.63;;;13.88;;
53207;SDS011;39093;52.788;6.940;2022-10-22T00:56:19;26.55;;;17.45;;
53207;SDS011;39093;52.788;6.940;2022-10-22T00:58:47;30.38;;;16.85;;
53207;SDS011;39093;52.788;6.940;2022-10-22T01:01:19;26.10;;;17.08;;
53207;SDS011;39093;52.788;6.940;2022-10-22T01:03:48;22.88;;;17.13;;
53207;SDS011;39093;52.788;6.940;2022-10-22T01:06:23;25.58;;;14.70;;
53207;SDS011;39093;52.788;6.940;2022-10-22T01:15:16;28.13;;;13.95;;
53207;SDS011;39093;52.788;6.940;2022-10-22T01:17:35;21.35;;;13.55;;
53207;SDS011;39093;52.788;6.940;2022-10-22T01:25:53;16.97;;;10.20;;
53207;SDS011;39093;52.788;6.940;2022-10-22T01:31:20;17.95;;;8.98;;
53207;SDS011;39093;52.788;6.940;2022-10-22T01:33:48;14.95;;;7.93;;
53207;SDS011;39093;52.788;6.940;2022-10-22T01:36:21;12.98;;;8.38;;
53207;SDS011;39093;52.788;6.940;2022-10-22T01:38:48;9.75;;;7.97;;
53207;SDS011;39093;52.788;6.940;2022-10-22T01:41:17;11.77;;;8.52;;
53207;SDS011;39093;52.788;6.940;2022-10-22T01:43:44;14.98;;;9.48;;
53207;SDS011;39093;52.788;6.940;2022-10-22T01:46:11;14.10;;;8.50;;
53207;SDS011;39093;52.788;6.940;2022-10-22T01:48:43;17.92;;;8.15;;
53207;SDS011;39093;52.788;6.940;2022-10-22T01:54:28;13.57;;;8.70;;
53207;SDS011;39093;52.788;6.940;2022-10-22T01:57:35;17.45;;;11.55;;
53207;SDS011;39093;52.788;6.940;2022-10-22T02:00:14;17.05;;;12.45;;
53207;SDS011;39093;52.788;6.940;2022-10-22T02:05:37;22.73;;;19.13;;
53207;SDS011;39093;52.788;6.940;2022-10-22T02:08:11;27.40;;;23.98;;
53207;SDS011;39093;52.788;6.940;2022-10-22T02:10:41;28.42;;;24.80;;
53207;SDS011;39093;52.788;6.940;2022-10-22T02:15:43;32.30;;;25.35;;
53207;SDS011;39093;52.788;6.940;2022-10-22T02:18:11;27.58;;;22.27;;
53207;SDS011;39093;52.788;6.940;2022-10-22T02:20:40;28.63;;;22.63;;
53207;SDS011;39093;52.788;6.940;2022-10-22T02:23:08;27.08;;;22.90;;
53207;SDS011;39093;52.788;6.940;2022-10-22T02:25:37;25.42;;;22.13;;
53207;SDS011;39093;52.788;6.940;2022-10-22T02:30:39;26.23;;;17.77;;
53207;SDS011;39093;52.788;6.940;2022-10-22T02:33:10;23.42;;;20.65;;
53207;SDS011;39093;52.788;6.940;2022-10-22T02:35:41;19.30;;;15.80;;
53207;SDS011;39093;52.788;6.940;2022-10-22T02:38:09;28.05;;;17.45;;
53207;SDS011;39093;52.788;6.940;2022-10-22T02:40:38;17.70;;;12.63;;
53207;SDS011;39093;52.788;6.940;2022-10-22T02:43:06;17.80;;;13.13;;
53207;SDS011;39093;52.788;6.940;2022-10-22T02:45:33;23.52;;;11.93;;
53207;SDS011;39093;52.788;6.940;2022-10-22T02:47:59;16.05;;;12.05;;
53207;SDS011;39093;52.788;6.940;2022-10-22T02:50:26;13.10;;;10.13;;
53207;SDS011;39093;52.788;6.940;2022-10-22T02:52:53;15.77;;;10.13;;
53207;SDS011;39093;52.788;6.940;2022-10-22T02:55:20;24.80;;;11.35;;
53207;SDS011;39093;52.788;6.940;2022-10-22T02:57:47;11.05;;;7.65;;
53207;SDS011;39093;52.788;6.940;2022-10-22T03:00:14;13.80;;;8.20;;
53207;SDS011;39093;52.788;6.940;2022-10-22T03:02:41;13.77;;;7.85;;
53207;SDS011;39093;52.788;6.940;2022-10-22T03:05:08;15.13;;;8.90;;
53207;SDS011;39093;52.788;6.940;2022-10-22T03:07:36;16.95;;;8.57;;
53207;SDS011;39093;52.788;6.940;2022-10-22T03:10:03;14.48;;;8.60;;
53207;SDS011;39093;52.788;6.940;2022-10-22T03:12:30;19.45;;;8.32;;
53207;SDS011;39093;52.788;6.940;2022-10-22T03:14:57;12.38;;;8.52;;
53207;SDS011;39093;52.788;6.940;2022-10-22T03:17:24;13.02;;;8.35;;
53207;SDS011;39093;52.788;6.940;2022-10-22T03:19:50;15.82;;;9.18;;
53207;SDS011;39093;52.788;6.940;2022-10-22T03:22:19;16.27;;;8.35;;
53207;SDS011;39093;52.788;6.940;2022-10-22T03:24:51;12.73;;;9.13;;
53207;SDS011;39093;52.788;6.940;2022-10-22T03:27:21;21.60;;;8.75;;
53207;SDS011;39093;52.788;6.940;2022-10-22T03:29:49;12.63;;;8.98;;
53207;SDS011;39093;52.788;6.940;2022-10-22T03:32:17;14.40;;;9.45;;
53207;SDS011;39093;52.788;6.940;2022-10-22T03:34:47;15.20;;;9.10;;
53207;SDS011;39093;52.788;6.940;2022-10-22T03:37:14;19.05;;;9.25;;
53207;SDS011;39093;52.788;6.940;2022-10-22T03:39:40;18.23;;;10.07;;
53207;SDS011;39093;52.788;6.940;2022-10-22T03:42:07;19.27;;;10.25;;
53207;SDS011;39093;52.788;6.940;2022-10-22T03:44:35;17.48;;;9.82;;
53207;SDS011;39093;52.788;6.940;2022-10-22T03:47:03;17.63;;;9.90;;
53207;SDS011;39093;52.788;6.940;2022-10-22T03:49:31;15.60;;;9.65;;
53207;SDS011;39093;52.788;6.940;2022-10-22T03:52:03;15.90;;;10.18;;
53207;SDS011;39093;52.788;6.940;2022-10-22T03:54:31;18.55;;;10.52;;
53207;SDS011;39093;52.788;6.940;2022-10-22T03:56:58;19.38;;;10.73;;
53207;SDS011;39093;52.788;6.940;2022-10-22T03:59:25;17.10;;;10.60;;
53207;SDS011;39093;52.788;6.940;2022-10-22T04:01:52;19.35;;;10.52;;
53207;SDS011;39093;52.788;6.940;2022-10-22T04:04:19;22.75;;;10.80;;
53207;SDS011;39093;52.788;6.940;2022-10-22T04:06:45;19.92;;;10.98;;
53207;SDS011;39093;52.788;6.940;2022-10-22T04:09:12;22.52;;;11.25;;
53207;SDS011;39093;52.788;6.940;2022-10-22T04:11:39;24.60;;;11.43;;
53207;SDS011;39093;52.788;6.940;2022-10-22T04:14:06;20.70;;;11.32;;
53207;SDS011;39093;52.788;6.940;2022-10-22T04:16:33;22.48;;;12.15;;
53207;SDS011;39093;52.788;6.940;2022-10-22T04:18:59;21.20;;;12.07;;
53207;SDS011;39093;52.788;6.940;2022-10-22T04:21:26;15.65;;;11.05;;
53207;SDS011;39093;52.788;6.940;2022-10-22T04:23:54;16.58;;;10.68;;
53207;SDS011;39093;52.788;6.940;2022-10-22T04:26:21;19.42;;;10.55;;
53207;SDS011;39093;52.788;6.940;2022-10-22T04:28:48;18.00;;;11.60;;
53207;SDS011;39093;52.788;6.940;2022-10-22T04:31:18;18.13;;;12.10;;
53207;SDS011;39093;52.788;6.940;2022-10-22T04:33:51;22.00;;;11.65;;
53207;SDS011;39093;52.788;6.940;2022-10-22T04:36:22;18.95;;;12.00;;
53207;SDS011;39093;52.788;6.940;2022-10-22T04:38:59;23.42;;;12.93;;
53207;SDS011;39093;52.788;6.940;2022-10-22T04:41:36;19.73;;;12.18;;
53207;SDS011;39093;52.788;6.940;2022-10-22T04:44:04;27.33;;;11.70;;
53207;SDS011;39093;52.788;6.940;2022-10-22T04:46:39;22.45;;;13.10;;
53207;SDS011;39093;52.788;6.940;2022-10-22T04:49:05;26.20;;;12.85;;
53207;SDS011;39093;52.788;6.940;2022-10-22T04:51:32;21.30;;;12.55;;
53207;SDS011;39093;52.788;6.940;2022-10-22T04:53:59;27.25;;;13.35;;
53207;SDS011;39093;52.788;6.940;2022-10-22T04:56:27;25.58;;;12.63;;
53207;SDS011;39093;52.788;6.940;2022-10-22T04:58:56;20.42;;;11.80;;
53207;SDS011;39093;52.788;6.940;2022-10-22T05:01:38;25.05;;;12.63;;
53207;SDS011;39093;52.788;6.940;2022-10-22T05:04:13;21.85;;;13.05;;
53207;SDS011;39093;52.788;6.940;2022-10-22T05:06:42;21.50;;;11.60;;
53207;SDS011;39093;52.788;6.940;2022-10-22T05:09:10;21.27;;;13.00;;
53207;SDS011;39093;52.788;6.940;2022-10-22T05:11:40;20.58;;;12.55;;
53207;SDS011;39093;52.788;6.940;2022-10-22T05:14:10;26.98;;;12.95;;
53207;SDS011;39093;52.788;6.940;2022-10-22T05:16:38;20.23;;;13.38;;
53207;SDS011;39093;52.788;6.940;2022-10-22T05:19:05;20.48;;;12.90;;
53207;SDS011;39093;52.788;6.940;2022-10-22T05:21:34;22.10;;;13.60;;
53207;SDS011;39093;52.788;6.940;2022-10-22T05:24:02;24.60;;;13.10;;
53207;SDS011;39093;52.788;6.940;2022-10-22T05:26:29;25.77;;;13.32;;
53207;SDS011;39093;52.788;6.940;2022-10-22T05:28:56;25.63;;;12.18;;
53207;SDS011;39093;52.788;6.940;2022-10-22T05:31:23;21.90;;;13.40;;
53207;SDS011;39093;52.788;6.940;2022-10-22T05:33:50;24.88;;;13.20;;
53207;SDS011;39093;52.788;6.940;2022-10-22T05:36:18;25.15;;;13.13;;
53207;SDS011;39093;52.788;6.940;2022-10-22T05:38:46;25.60;;;13.65;;
53207;SDS011;39093;52.788;6.940;2022-10-22T05:41:18;23.27;;;13.35;;
53207;SDS011;39093;52.788;6.940;2022-10-22T05:46:15;28.73;;;13.45;;
53207;SDS011;39093;52.788;6.940;2022-10-22T05:48:51;24.40;;;13.60;;
53207;SDS011;39093;52.788;6.940;2022-10-22T05:51:27;23.60;;;13.82;;
53207;SDS011;39093;52.788;6.940;2022-10-22T05:53:56;24.17;;;13.15;;
53207;SDS011;39093;52.788;6.940;2022-10-22T05:56:28;24.40;;;13.02;;
53207;SDS011;39093;52.788;6.940;2022-10-22T05:58:57;23.35;;;13.85;;
53207;SDS011;39093;52.788;6.940;2022-10-22T06:01:28;20.77;;;12.50;;
53207;SDS011;39093;52.788;6.940;2022-10-22T06:04:00;19.88;;;12.52;;
53207;SDS011;39093;52.788;6.940;2022-10-22T06:06:38;20.48;;;12.68;;
53207;SDS011;39093;52.788;6.940;2022-10-22T06:09:13;22.95;;;12.93;;
53207;SDS011;39093;52.788;6.940;2022-10-22T06:11:56;24.75;;;12.32;;
53207;SDS011;39093;52.788;6.940;2022-10-22T06:14:23;19.80;;;13.07;;
53207;SDS011;39093;52.788;6.940;2022-10-22T06:16:51;20.33;;;11.98;;
53207;SDS011;39093;52.788;6.940;2022-10-22T06:19:19;22.92;;;13.15;;
53207;SDS011;39093;52.788;6.940;2022-10-22T06:21:47;22.33;;;13.23;;
53207;SDS011;39093;52.788;6.940;2022-10-22T06:24:14;26.25;;;14.18;;
53207;SDS011;39093;52.788;6.940;2022-10-22T06:26:41;31.10;;;13.35;;
53207;SDS011;39093;52.788;6.940;2022-10-22T06:29:09;20.10;;;11.98;;
53207;SDS011;39093;52.788;6.940;2022-10-22T06:31:36;21.58;;;11.40;;
53207;SDS011;39093;52.788;6.940;2022-10-22T06:34:04;26.75;;;12.68;;
53207;SDS011;39093;52.788;6.940;2022-10-22T06:36:32;22.17;;;12.15;;
53207;SDS011;39093;52.788;6.940;2022-10-22T06:39:00;25.27;;;12.40;;
53207;SDS011;39093;52.788;6.940;2022-10-22T06:41:27;23.90;;;11.23;;
53207;SDS011;39093;52.788;6.940;2022-10-22T06:43:55;21.85;;;12.23;;
53207;SDS011;39093;52.788;6.940;2022-10-22T06:46:23;27.27;;;12.38;;
53207;SDS011;39093;52.788;6.940;2022-10-22T06:48:51;24.92;;;11.70;;
53207;SDS011;39093;52.788;6.940;2022-10-22T06:51:23;21.63;;;11.90;;
53207;SDS011;39093;52.788;6.940;2022-10-22T06:53:50;24.75;;;11.77;;
53207;SDS011;39093;52.788;6.940;2022-10-22T06:56:19;23.80;;;12.05;;
53207;SDS011;39093;52.788;6.940;2022-10-22T06:58:48;18.90;;;11.48;;
53207;SDS011;39093;52.788;6.940;2022-10-22T07:01:17;24.67;;;11.60;;
53207;SDS011;39093;52.788;6.940;2022-10-22T07:03:46;23.52;;;11.85;;
53207;SDS011;39093;52.788;6.940;2022-10-22T07:06:19;20.50;;;10.30;;
53207;SDS011;39093;52.788;6.940;2022-10-22T07:08:47;19.42;;;10.45;;
53207;SDS011;39093;52.788;6.940;2022-10-22T07:11:16;21.17;;;10.30;;
53207;SDS011;39093;52.788;6.940;2022-10-22T07:13:45;21.15;;;10.02;;
53207;SDS011;39093;52.788;6.940;2022-10-22T07:16:13;17.08;;;9.93;;
53207;SDS011;39093;52.788;6.940;2022-10-22T07:18:41;21.85;;;11.07;;
53207;SDS011;39093;52.788;6.940;2022-10-22T07:21:08;21.65;;;10.27;;
53207;SDS011;39093;52.788;6.940;2022-10-22T07:23:36;17.10;;;9.85;;
53207;SDS011;39093;52.788;6.940;2022-10-22T07:26:03;20.33;;;9.05;;
53207;SDS011;39093;52.788;6.940;2022-10-22T07:28:35;22.00;;;9.73;;
53207;SDS011;39093;52.788;6.940;2022-10-22T07:31:06;21.75;;;9.80;;
53207;SDS011;39093;52.788;6.940;2022-10-22T07:33:34;20.23;;;9.43;;
53207;SDS011;39093;52.788;6.940;2022-10-22T07:36:02;15.80;;;8.90;;
53207;SDS011;39093;52.788;6.940;2022-10-22T07:38:31;19.08;;;9.50;;
53207;SDS011;39093;52.788;6.940;2022-10-22T07:40:59;20.90;;;8.80;;
53207;SDS011;39093;52.788;6.940;2022-10-22T07:43:26;23.33;;;9.93;;
53207;SDS011;39093;52.788;6.940;2022-10-22T07:45:53;23.17;;;9.27;;
53207;SDS011;39093;52.788;6.940;2022-10-22T07:48:23;18.73;;;9.07;;
53207;SDS011;39093;52.788;6.940;2022-10-22T07:50:50;24.30;;;9.15;;
53207;SDS011;39093;52.788;6.940;2022-10-22T07:53:17;17.63;;;8.20;;
53207;SDS011;39093;52.788;6.940;2022-10-22T07:55:46;15.10;;;7.03;;
53207;SDS011;39093;52.788;6.940;2022-10-22T07:58:14;21.55;;;8.20;;
53207;SDS011;39093;52.788;6.940;2022-10-22T08:00:42;23.67;;;7.25;;
53207;SDS011;39093;52.788;6.940;2022-10-22T08:03:09;18.40;;;7.53;;
53207;SDS011;39093;52.788;6.940;2022-10-22T08:05:37;12.85;;;6.50;;
53207;SDS011;39093;52.788;6.940;2022-10-22T08:08:05;20.25;;;6.90;;
53207;SDS011;39093;52.788;6.940;2022-10-22T08:10:32;14.93;;;6.50;;
53207;SDS011;39093;52.788;6.940;2022-10-22T08:13:00;14.02;;;6.45;;
53207;SDS011;39093;52.788;6.940;2022-10-22T08:15:27;18.48;;;7.22;;
53207;SDS011;39093;52.788;6.940;2022-10-22T08:17:54;18.00;;;6.93;;
53207;SDS011;39093;52.788;6.940;2022-10-22T08:20:21;15.23;;;5.65;;
53207;SDS011;39093;52.788;6.940;2022-10-22T08:22:48;19.58;;;7.18;;
53207;SDS011;39093;52.788;6.940;2022-10-22T08:25:14;19.20;;;5.88;;
53207;SDS011;39093;52.788;6.940;2022-10-22T08:27:43;11.52;;;6.60;;
53207;SDS011;39093;52.788;6.940;2022-10-22T08:30:10;18.15;;;5.97;;
53207;SDS011;39093;52.788;6.940;2022-10-22T08:32:38;22.58;;;5.85;;
53207;SDS011;39093;52.788;6.940;2022-10-22T08:35:06;18.88;;;6.60;;
53207;SDS011;39093;52.788;6.940;2022-10-22T08:37:33;15.98;;;5.75;;
53207;SDS011;39093;52.788;6.940;2022-10-22T08:40:00;21.20;;;5.80;;
53207;SDS011;39093;52.788;6.940;2022-10-22T08:50:33;19.65;;;5.82;;
53207;SDS011;39093;52.788;6.940;2022-10-22T08:53:03;13.57;;;5.57;;
53207;SDS011;39093;52.788;6.940;2022-10-22T08:55:33;17.42;;;6.28;;
53207;SDS011;39093;52.788;6.940;2022-10-22T08:58:06;18.42;;;5.82;;
53207;SDS011;39093;52.788;6.940;2022-10-22T09:00:57;20.90;;;6.05;;
53207;SDS011;39093;52.788;6.940;2022-10-22T09:06:29;14.10;;;6.43;;
53207;SDS011;39093;52.788;6.940;2022-10-22T09:08:59;13.20;;;5.20;;
53207;SDS011;39093;52.788;6.940;2022-10-22T09:11:35;11.68;;;5.30;;
53207;SDS011;39093;52.788;6.940;2022-10-22T09:14:04;14.13;;;5.55;;
53207;SDS011;39093;52.788;6.940;2022-10-22T09:19:21;16.75;;;4.72;;
53207;SDS011;39093;52.788;6.940;2022-10-22T09:27:11;17.70;;;6.10;;
53207;SDS011;39093;52.788;6.940;2022-10-22T09:29:41;15.77;;;5.07;;
53207;SDS011;39093;52.788;6.940;2022-10-22T09:32:08;13.38;;;5.40;;
53207;SDS011;39093;52.788;6.940;2022-10-22T09:34:36;13.63;;;5.25;;
53207;SDS011;39093;52.788;6.940;2022-10-22T09:37:06;15.20;;;5.53;;
53207;SDS011;39093;52.788;6.940;2022-10-22T09:39:39;10.30;;;5.35;;
53207;SDS011;39093;52.788;6.940;2022-10-22T09:42:10;20.05;;;5.22;;
53207;SDS011;39093;52.788;6.940;2022-10-22T09:44:41;14.23;;;4.53;;
53207;SDS011;39093;52.788;6.940;2022-10-22T09:50:43;13.02;;;4.55;;
53207;SDS011;39093;52.788;6.940;2022-10-22T09:53:19;24.25;;;5.57;;
53207;SDS011;39093;52.788;6.940;2022-10-22T09:55:56;14.45;;;4.63;;
53207;SDS011;39093;52.788;6.940;2022-10-22T09:58:24;16.55;;;4.80;;
53207;SDS011;39093;52.788;6.940;2022-10-22T10:00:53;15.88;;;5.30;;
53207;SDS011;39093;52.788;6.940;2022-10-22T10:03:26;17.60;;;4.70;;
53207;SDS011;39093;52.788;6.940;2022-10-22T10:05:56;15.32;;;4.72;;
53207;SDS011;39093;52.788;6.940;2022-10-22T10:08:31;11.00;;;3.67;;
53207;SDS011;39093;52.788;6.940;2022-10-22T10:10:58;17.55;;;4.65;;
53207;SDS011;39093;52.788;6.940;2022-10-22T10:19:41;11.68;;;4.43;;
53207;SDS011;39093;52.788;6.940;2022-10-22T10:33:59;14.52;;;4.03;;
53207;SDS011;39093;52.788;6.940;2022-10-22T10:46:04;7.38;;;3.65;;
53207;SDS011;39093;52.788;6.940;2022-10-22T11:07:39;13.43;;;4.05;;
53207;SDS011;39093;52.788;6.940;2022-10-22T11:12:50;15.57;;;4.00;;
53207;SDS011;39093;52.788;6.940;2022-10-22T11:15:31;13.70;;;4.53;;
53207;SDS011;39093;52.788;6.940;2022-10-22T11:23:13;15.95;;;5.60;;
53207;SDS011;39093;52.788;6.940;2022-10-22T11:26:05;9.98;;;3.33;;
53207;SDS011;39093;52.788;6.940;2022-10-22T11:28:41;17.83;;;4.70;;
53207;SDS011;39093;52.788;6.940;2022-10-22T11:31:14;15.00;;;3.78;;
53207;SDS011;39093;52.788;6.940;2022-10-22T11:36:59;17.52;;;4.90;;
53207;SDS011;39093;52.788;6.940;2022-10-22T11:39:37;11.90;;;5.22;;
53207;SDS011;39093;52.788;6.940;2022-10-22T11:42:15;7.80;;;4.35;;
53207;SDS011;39093;52.788;6.940;2022-10-22T11:47:31;13.68;;;4.95;;
53207;SDS011;39093;52.788;6.940;2022-10-22T11:52:54;17.92;;;4.75;;
53207;SDS011;39093;52.788;6.940;2022-10-22T11:58:31;17.95;;;5.05;;
53207;SDS011;39093;52.788;6.940;2022-10-22T12:11:37;11.50;;;4.82;;
53207;SDS011;39093;52.788;6.940;2022-10-22T12:16:52;19.08;;;5.15;;
53207;SDS011;39093;52.788;6.940;2022-10-22T12:19:39;14.00;;;4.47;;
53207;SDS011;39093;52.788;6.940;2022-10-22T12:24:43;14.20;;;4.72;;
53207;SDS011;39093;52.788;6.940;2022-10-22T12:29:53;15.63;;;5.15;;
53207;SDS011;39093;52.788;6.940;2022-10-22T12:32:34;14.70;;;4.75;;
53207;SDS011;39093;52.788;6.940;2022-10-22T12:35:13;12.05;;;4.25;;
53207;SDS011;39093;52.788;6.940;2022-10-22T12:37:42;11.30;;;3.85;;
53207;SDS011;39093;52.788;6.940;2022-10-22T12:42:51;17.02;;;4.78;;
53207;SDS011;39093;52.788;6.940;2022-10-22T12:47:49;14.35;;;4.75;;
53207;SDS011;39093;52.788;6.940;2022-10-22T12:50:22;12.15;;;3.35;;
53207;SDS011;39093;52.788;6.940;2022-10-22T12:52:56;10.55;;;3.03;;
53207;SDS011;39093;52.788;6.940;2022-10-22T12:55:24;11.82;;;3.50;;
53207;SDS011;39093;52.788;6.940;2022-10-22T12:57:52;16.60;;;4.22;;
53207;SDS011;39093;52.788;6.940;2022-10-22T13:00:23;11.85;;;2.80;;
53207;SDS011;39093;52.788;6.940;2022-10-22T13:02:52;13.45;;;4.18;;
53207;SDS011;39093;52.788;6.940;2022-10-22T13:07:50;11.90;;;2.88;;
53207;SDS011;39093;52.788;6.940;2022-10-22T13:10:26;7.28;;;2.97;;
53207;SDS011;39093;52.788;6.940;2022-10-22T13:12:58;9.52;;;2.80;;
53207;SDS011;39093;52.788;6.940;2022-10-22T13:18:17;12.07;;;3.05;;
53207;SDS011;39093;52.788;6.940;2022-10-22T13:20:56;15.55;;;3.28;;
53207;SDS011;39093;52.788;6.940;2022-10-22T13:23:30;12.32;;;2.78;;
53207;SDS011;39093;52.788;6.940;2022-10-22T13:28:39;12.63;;;2.90;;
53207;SDS011;39093;52.788;6.940;2022-10-22T13:31:16;12.60;;;3.05;;
53207;SDS011;39093;52.788;6.940;2022-10-22T13:33:49;19.98;;;3.55;;
53207;SDS011;39093;52.788;6.940;2022-10-22T13:36:18;10.38;;;2.90;;
53207;SDS011;39093;52.788;6.940;2022-10-22T13:38:45;14.73;;;3.38;;
53207;SDS011;39093;52.788;6.940;2022-10-22T13:41:20;11.23;;;2.45;;
53207;SDS011;39093;52.788;6.940;2022-10-22T13:43:49;8.38;;;2.22;;
53207;SDS011;39093;52.788;6.940;2022-10-22T13:46:17;10.95;;;2.70;;
53207;SDS011;39093;52.788;6.940;2022-10-22T13:48:45;13.98;;;2.78;;
53207;SDS011;39093;52.788;6.940;2022-10-22T13:51:15;16.75;;;3.28;;
53207;SDS011;39093;52.788;6.940;2022-10-22T13:53:44;14.57;;;3.20;;
53207;SDS011;39093;52.788;6.940;2022-10-22T13:56:17;15.43;;;4.20;;
53207;SDS011;39093;52.788;6.940;2022-10-22T13:58:45;12.18;;;3.45;;
53207;SDS011;39093;52.788;6.940;2022-10-22T14:01:23;12.32;;;3.80;;
53207;SDS011;39093;52.788;6.940;2022-10-22T14:03:53;26.42;;;4.35;;
53207;SDS011;39093;52.788;6.940;2022-10-22T14:06:29;10.82;;;2.35;;
53207;SDS011;39093;52.788;6.940;2022-10-22T14:09:04;15.27;;;3.20;;
53207;SDS011;39093;52.788;6.940;2022-10-22T14:11:34;10.35;;;2.03;;
53207;SDS011;39093;52.788;6.940;2022-10-22T14:14:01;10.95;;;2.60;;
53207;SDS011;39093;52.788;6.940;2022-10-22T14:16:30;15.77;;;2.38;;
53207;SDS011;39093;52.788;6.940;2022-10-22T14:18:58;11.13;;;2.90;;
53207;SDS011;39093;52.788;6.940;2022-10-22T14:21:27;9.02;;;1.75;;
53207;SDS011;39093;52.788;6.940;2022-10-22T14:23:58;7.43;;;2.17;;
53207;SDS011;39093;52.788;6.940;2022-10-22T14:26:26;11.05;;;1.85;;
53207;SDS011;39093;52.788;6.940;2022-10-22T14:28:56;12.15;;;1.80;;
53207;SDS011;39093;52.788;6.940;2022-10-22T14:31:39;13.57;;;2.85;;
53207;SDS011;39093;52.788;6.940;2022-10-22T14:34:10;10.10;;;2.25;;
53207;SDS011;39093;52.788;6.940;2022-10-22T14:36:39;10.20;;;1.88;;
53207;SDS011;39093;52.788;6.940;2022-10-22T14:39:09;10.38;;;2.72;;
53207;SDS011;39093;52.788;6.940;2022-10-22T14:41:36;11.73;;;2.40;;
53207;SDS011;39093;52.788;6.940;2022-10-22T14:44:03;16.52;;;3.13;;
53207;SDS011;39093;52.788;6.940;2022-10-22T14:46:30;8.75;;;2.20;;
53207;SDS011;39093;52.788;6.940;2022-10-22T14:48:57;8.77;;;1.80;;
53207;SDS011;39093;52.788;6.940;2022-10-22T14:51:23;6.28;;;2.17;;
53207;SDS011;39093;52.788;6.940;2022-10-22T14:53:50;9.90;;;1.70;;
53207;SDS011;39093;52.788;6.940;2022-10-22T14:56:18;13.13;;;1.58;;
53207;SDS011;39093;52.788;6.940;2022-10-22T14:58:46;11.60;;;2.08;;
53207;SDS011;39093;52.788;6.940;2022-10-22T15:01:14;10.77;;;1.60;;
53207;SDS011;39093;52.788;6.940;2022-10-22T15:03:41;11.10;;;1.85;;
53207;SDS011;39093;52.788;6.940;2022-10-22T15:06:08;9.55;;;2.55;;
53207;SDS011;39093;52.788;6.940;2022-10-22T15:08:35;9.50;;;1.75;;
53207;SDS011;39093;52.788;6.940;2022-10-22T15:11:03;9.88;;;1.80;;
53207;SDS011;39093;52.788;6.940;2022-10-22T15:13:32;8.15;;;2.03;;
53207;SDS011;39093;52.788;6.940;2022-10-22T15:15:59;5.57;;;1.88;;
53207;SDS011;39093;52.788;6.940;2022-10-22T15:18:27;10.02;;;2.00;;
53207;SDS011;39093;52.788;6.940;2022-10-22T15:20:57;9.80;;;1.63;;
53207;SDS011;39093;52.788;6.940;2022-10-22T15:23:30;9.60;;;2.13;;
53207;SDS011;39093;52.788;6.940;2022-10-22T15:25:57;11.30;;;2.25;;
53207;SDS011;39093;52.788;6.940;2022-10-22T15:28:24;12.05;;;2.15;;
53207;SDS011;39093;52.788;6.940;2022-10-22T15:30:55;13.07;;;1.40;;
53207;SDS011;39093;52.788;6.940;2022-10-22T15:33:25;12.20;;;2.03;;
53207;SDS011;39093;52.788;6.940;2022-10-22T15:35:54;12.55;;;2.28;;
53207;SDS011;39093;52.788;6.940;2022-10-22T15:38:25;12.70;;;2.38;;
53207;SDS011;39093;52.788;6.940;2022-10-22T15:41:02;12.80;;;1.70;;
53207;SDS011;39093;52.788;6.940;2022-10-22T15:43:31;17.13;;;2.22;;
53207;SDS011;39093;52.788;6.940;2022-10-22T15:48:39;17.15;;;2.47;;
53207;SDS011;39093;52.788;6.940;2022-10-22T15:51:07;9.73;;;1.98;;
53207;SDS011;39093;52.788;6.940;2022-10-22T15:53:39;7.50;;;2.03;;
53207;SDS011;39093;52.788;6.940;2022-10-22T15:56:06;16.10;;;2.38;;
53207;SDS011;39093;52.788;6.940;2022-10-22T15:58:34;11.40;;;1.95;;
53207;SDS011;39093;52.788;6.940;2022-10-22T16:01:08;17.77;;;2.55;;
53207;SDS011;39093;52.788;6.940;2022-10-22T16:03:38;14.18;;;2.22;;
53207;SDS011;39093;52.788;6.940;2022-10-22T16:06:06;14.35;;;3.70;;
53207;SDS011;39093;52.788;6.940;2022-10-22T16:08:34;14.50;;;2.95;;
53207;SDS011;39093;52.788;6.940;2022-10-22T16:11:02;18.83;;;3.17;;
53207;SDS011;39093;52.788;6.940;2022-10-22T16:13:29;14.85;;;2.72;;
53207;SDS011;39093;52.788;6.940;2022-10-22T16:15:56;13.73;;;2.97;;
53207;SDS011;39093;52.788;6.940;2022-10-22T16:18:23;11.90;;;2.40;;
53207;SDS011;39093;52.788;6.940;2022-10-22T16:20:50;11.52;;;3.17;;
53207;SDS011;39093;52.788;6.940;2022-10-22T16:23:17;18.10;;;2.97;;
53207;SDS011;39093;52.788;6.940;2022-10-22T16:25:44;12.95;;;2.75;;
53207;SDS011;39093;52.788;6.940;2022-10-22T16:28:12;18.20;;;3.28;;
53207;SDS011;39093;52.788;6.940;2022-10-22T16:30:39;15.68;;;3.53;;
53207;SDS011;39093;52.788;6.940;2022-10-22T16:33:07;18.45;;;2.90;;
53207;SDS011;39093;52.788;6.940;2022-10-22T16:35:42;15.00;;;3.25;;
53207;SDS011;39093;52.788;6.940;2022-10-22T16:40:36;15.38;;;2.83;;
53207;SDS011;39093;52.788;6.940;2022-10-22T16:43:03;11.25;;;2.88;;
53207;SDS011;39093;52.788;6.940;2022-10-22T16:45:30;18.33;;;2.65;;
53207;SDS011;39093;52.788;6.940;2022-10-22T16:47:57;17.83;;;4.25;;
53207;SDS011;39093;52.788;6.940;2022-10-22T16:50:24;21.35;;;3.95;;
53207;SDS011;39093;52.788;6.940;2022-10-22T16:52:51;13.60;;;2.95;;
53207;SDS011;39093;52.788;6.940;2022-10-22T16:55:18;13.80;;;2.35;;
53207;SDS011;39093;52.788;6.940;2022-10-22T16:57:48;19.48;;;3.58;;
53207;SDS011;39093;52.788;6.940;2022-10-22T17:00:17;16.45;;;2.38;;
53207;SDS011;39093;52.788;6.940;2022-10-22T17:02:45;13.65;;;3.75;;
53207;SDS011;39093;52.788;6.940;2022-10-22T17:07:44;14.88;;;2.47;;
53207;SDS011;39093;52.788;6.940;2022-10-22T17:10:11;19.60;;;3.63;;
53207;SDS011;39093;52.788;6.940;2022-10-22T17:12:39;18.83;;;3.45;;
53207;SDS011;39093;52.788;6.940;2022-10-22T17:15:06;19.30;;;4.53;;
53207;SDS011;39093;52.788;6.940;2022-10-22T17:17:33;13.15;;;3.75;;
53207;SDS011;39093;52.788;6.940;2022-10-22T17:20:00;13.95;;;4.07;;
53207;SDS011;39093;52.788;6.940;2022-10-22T17:22:27;16.95;;;3.70;;